createdAt,value
2022-09-27T00:01:23.692Z,100.00
2022-09-27T00:03:55.184Z,100.00
2022-09-27T00:06:28.073Z,100.00
2022-09-27T00:08:55.834Z,100.00
2022-09-27T00:11:27.018Z,100.00
2022-09-27T00:13:55.569Z,100.00
2022-09-27T00:16:23.925Z,100.00
2022-09-27T00:18:50.564Z,100.00
2022-09-27T00:21:17.336Z,100.00
2022-09-27T00:23:44.076Z,100.00
2022-09-27T00:26:12.833Z,100.00
2022-09-27T00:28:39.293Z,100.00
2022-09-27T00:31:14.912Z,100.00
2022-09-27T00:33:41.403Z,100.00
2022-09-27T00:36:07.868Z,100.00
2022-09-27T00:38:34.370Z,100.00
2022-09-27T00:41:00.917Z,100.00
2022-09-27T00:43:42.453Z,100.00
2022-09-27T00:46:08.992Z,100.00
2022-09-27T00:48:37.208Z,100.00
2022-09-27T00:51:06.079Z,100.00
2022-09-27T00:53:46.333Z,100.00
2022-09-27T00:56:18.980Z,100.00
2022-09-27T00:58:50.565Z,100.00
2022-09-27T01:01:17.451Z,100.00
2022-09-27T01:04:00.546Z,100.00
2022-09-27T01:06:27.080Z,100.00
2022-09-27T01:08:53.428Z,100.00
2022-09-27T01:11:39.699Z,100.00
2022-09-27T01:14:18.015Z,100.00
2022-09-27T01:16:57.662Z,100.00
2022-09-27T01:20:01.636Z,100.00
2022-09-27T01:22:42.436Z,100.00
2022-09-27T01:25:29.246Z,100.00
2022-09-27T01:28:17.348Z,100.00
2022-09-27T01:30:56.298Z,100.00
2022-09-27T01:33:40.225Z,100.00
2022-09-27T01:36:20.840Z,100.00
2022-09-27T01:39:12.041Z,100.00
2022-09-27T01:42:26.183Z,100.00
2022-09-27T01:45:06.055Z,100.00
2022-09-27T01:47:47.361Z,100.00
2022-09-27T01:51:06.782Z,100.00
2022-09-27T01:53:52.975Z,100.00
2022-09-27T01:56:57.585Z,100.00
2022-09-27T01:59:41.063Z,100.00
2022-09-27T02:02:38.083Z,100.00
2022-09-27T02:05:35.267Z,100.00
2022-09-27T02:08:25.585Z,100.00
2022-09-27T02:10:56.916Z,100.00
2022-09-27T02:13:32.907Z,100.00
2022-09-27T02:16:23.857Z,100.00
2022-09-27T02:19:31.963Z,100.00
2022-09-27T02:22:20.227Z,100.00
2022-09-27T02:25:01.015Z,100.00
2022-09-27T02:27:38.559Z,100.00
2022-09-27T02:30:15.396Z,100.00
2022-09-27T02:32:44.754Z,100.00
2022-09-27T02:35:29.554Z,100.00
2022-09-27T02:37:57.326Z,100.00
2022-09-27T02:40:26.270Z,100.00
2022-09-27T02:42:53.004Z,100.00
2022-09-27T02:45:20.050Z,100.00
2022-09-27T02:48:15.004Z,100.00
2022-09-27T02:50:58.334Z,100.00
2022-09-27T02:53:47.300Z,100.00
2022-09-27T02:57:08.003Z,100.00
2022-09-27T03:00:10.945Z,100.00
2022-09-27T03:03:15.010Z,100.00
2022-09-27T03:06:06.060Z,100.00
2022-09-27T03:08:32.862Z,100.00
2022-09-27T03:10:59.705Z,100.00
2022-09-27T03:13:26.934Z,100.00
2022-09-27T03:15:58.201Z,100.00
2022-09-27T03:18:53.839Z,100.00
2022-09-27T03:21:39.205Z,100.00
2022-09-27T03:24:05.861Z,100.00
2022-09-27T03:26:32.298Z,100.00
2022-09-27T03:28:58.803Z,100.00
2022-09-27T03:31:25.472Z,100.00
2022-09-27T03:34:12.367Z,100.00
2022-09-27T03:36:38.792Z,100.00
2022-09-27T03:39:05.562Z,100.00
2022-09-27T03:41:32.271Z,100.00
2022-09-27T03:43:59.843Z,100.00
2022-09-27T03:46:26.874Z,100.00
2022-09-27T03:48:53.437Z,100.00
2022-09-27T03:51:19.808Z,100.00
2022-09-27T03:53:46.809Z,100.00
2022-09-27T03:56:13.534Z,100.00
2022-09-27T03:58:39.982Z,100.00
2022-09-27T04:01:06.761Z,100.00
2022-09-27T04:03:36.011Z,100.00
2022-09-27T04:06:27.439Z,100.00
2022-09-27T04:08:54.199Z,100.00
2022-09-27T04:11:23.779Z,100.00
2022-09-27T04:13:50.479Z,100.00
2022-09-27T04:16:19.153Z,100.00
2022-09-27T04:18:53.025Z,100.00
2022-09-27T04:21:39.733Z,100.00
2022-09-27T04:24:08.486Z,100.00
2022-09-27T04:26:35.040Z,100.00
2022-09-27T04:29:03.949Z,100.00
2022-09-27T04:31:32.455Z,100.00
2022-09-27T04:34:45.792Z,100.00
2022-09-27T04:37:13.969Z,100.00
2022-09-27T04:39:44.488Z,100.00
2022-09-27T04:42:10.912Z,100.00
2022-09-27T04:44:37.792Z,100.00
2022-09-27T04:47:04.251Z,100.00
2022-09-27T04:49:30.806Z,100.00
2022-09-27T04:51:57.303Z,100.00
2022-09-27T04:54:23.775Z,100.00
2022-09-27T04:57:07.075Z,100.00
2022-09-27T04:59:33.653Z,100.00
2022-09-27T05:02:00.574Z,100.00
2022-09-27T05:04:41.176Z,100.00
2022-09-27T05:07:09.150Z,100.00
2022-09-27T05:09:41.916Z,100.00
2022-09-27T05:12:08.770Z,100.00
2022-09-27T05:14:45.045Z,100.00
2022-09-27T05:17:30.708Z,100.00
2022-09-27T05:20:15.794Z,100.00
2022-09-27T05:22:54.201Z,100.00
2022-09-27T05:25:20.578Z,100.00
2022-09-27T05:27:47.274Z,100.00
2022-09-27T05:30:13.720Z,100.00
2022-09-27T05:32:50.135Z,100.00
2022-09-27T05:35:25.345Z,100.00
2022-09-27T05:37:54.520Z,100.00
2022-09-27T05:40:40.327Z,99.83
2022-09-27T05:43:08.981Z,100.00
2022-09-27T05:45:35.450Z,100.00
2022-09-27T05:48:05.084Z,100.00
2022-09-27T05:50:35.607Z,100.00
2022-09-27T05:53:01.983Z,100.00
2022-09-27T05:55:29.745Z,100.00
2022-09-27T05:58:02.235Z,100.00
2022-09-27T06:00:39.133Z,100.00
2022-09-27T06:03:22.266Z,100.00
2022-09-27T06:06:07.625Z,100.00
2022-09-27T06:08:41.727Z,100.00
2022-09-27T06:11:12.784Z,100.00
2022-09-27T06:13:39.638Z,100.00
2022-09-27T06:16:08.261Z,100.00
2022-09-27T06:18:36.363Z,100.00
2022-09-27T06:21:04.746Z,100.00
2022-09-27T06:23:32.677Z,100.00
2022-09-27T06:26:05.990Z,100.00
2022-09-27T06:28:47.408Z,100.00
2022-09-27T06:31:15.352Z,100.00
2022-09-27T06:33:52.155Z,100.00
2022-09-27T06:36:18.781Z,100.00
2022-09-27T06:38:48.111Z,100.00
2022-09-27T06:41:19.271Z,100.00
2022-09-27T06:44:04.515Z,100.00
2022-09-27T06:46:50.707Z,100.00
2022-09-27T06:49:49.497Z,100.00
2022-09-27T06:52:17.675Z,100.00
2022-09-27T06:54:44.140Z,100.00
2022-09-27T06:57:31.642Z,100.00
2022-09-27T07:00:16.752Z,100.00
2022-09-27T07:03:02.147Z,100.00
2022-09-27T07:05:34.757Z,100.00
2022-09-27T07:08:13.480Z,100.00
2022-09-27T07:10:41.044Z,100.00
2022-09-27T07:13:10.231Z,100.00
2022-09-27T07:15:37.892Z,100.00
2022-09-27T07:18:08.940Z,100.00
2022-09-27T07:20:38.956Z,100.00
2022-09-27T07:23:07.629Z,100.00
2022-09-27T07:25:34.963Z,100.00
2022-09-27T07:28:03.334Z,100.00
2022-09-27T07:30:30.174Z,100.00
2022-09-27T07:32:59.241Z,100.00
2022-09-27T07:35:27.217Z,100.00
2022-09-27T07:37:54.082Z,100.00
2022-09-27T07:40:20.629Z,100.00
2022-09-27T07:42:47.027Z,100.00
2022-09-27T07:45:14.321Z,100.00
2022-09-27T07:47:59.676Z,100.00
2022-09-27T07:50:47.593Z,100.00
2022-09-27T07:53:32.845Z,100.00
2022-09-27T07:56:18.110Z,100.00
2022-09-27T07:58:44.871Z,100.00
2022-09-27T08:01:11.886Z,100.00
2022-09-27T08:03:38.560Z,100.00
2022-09-27T08:06:05.118Z,100.00
2022-09-27T08:08:31.931Z,100.00
2022-09-27T08:10:59.268Z,100.00
2022-09-27T08:13:25.838Z,100.00
2022-09-27T08:15:53.290Z,100.00
2022-09-27T08:18:21.962Z,100.00
2022-09-27T08:20:57.707Z,100.00
2022-09-27T08:23:31.762Z,100.00
2022-09-27T08:26:15.259Z,100.00
2022-09-27T08:28:50.759Z,100.00
2022-09-27T08:31:20.359Z,100.00
2022-09-27T08:33:51.224Z,99.29
2022-09-27T08:36:17.896Z,100.00
2022-09-27T08:38:44.341Z,100.00
2022-09-27T08:41:34.791Z,100.00
2022-09-27T08:44:39.207Z,97.95
2022-09-27T08:47:18.698Z,97.18
2022-09-27T08:49:56.323Z,99.23
2022-09-27T08:52:35.428Z,97.65
2022-09-27T08:55:20.160Z,98.67
2022-09-27T08:57:55.559Z,97.87
2022-09-27T09:00:22.651Z,96.50
2022-09-27T09:02:49.718Z,97.81
2022-09-27T09:05:30.271Z,98.77
2022-09-27T09:08:28.964Z,98.71
2022-09-27T09:11:44.491Z,97.86
2022-09-27T09:14:24.992Z,96.16
2022-09-27T09:17:11.481Z,94.28
2022-09-27T09:20:17.220Z,95.33
2022-09-27T09:23:13.115Z,98.62
2022-09-27T09:25:53.059Z,99.12
2022-09-27T09:28:44.891Z,100.00
2022-09-27T09:31:17.432Z,100.00
2022-09-27T09:33:54.841Z,100.00
2022-09-27T09:36:30.425Z,100.00
2022-09-27T09:39:04.793Z,100.00
2022-09-27T09:41:37.712Z,100.00
2022-09-27T09:44:19.396Z,100.00
2022-09-27T09:46:51.063Z,100.00
2022-09-27T09:49:35.803Z,99.32
2022-09-27T09:52:11.058Z,98.81
2022-09-27T09:54:52.243Z,100.00
2022-09-27T09:57:43.908Z,100.00
2022-09-27T10:00:18.991Z,99.16
2022-09-27T10:02:52.607Z,100.00
2022-09-27T10:05:23.350Z,100.00
2022-09-27T10:08:07.628Z,100.00
2022-09-27T10:10:34.782Z,100.00
2022-09-27T10:13:23.552Z,100.00
2022-09-27T10:16:14.924Z,100.00
2022-09-27T10:18:46.311Z,100.00
2022-09-27T10:21:25.559Z,100.00
2022-09-27T10:24:12.313Z,100.00
2022-09-27T10:27:01.292Z,100.00
2022-09-27T10:29:38.206Z,100.00
2022-09-27T10:32:43.083Z,100.00
2022-09-27T10:35:41.499Z,100.00
2022-09-27T10:38:22.879Z,100.00
2022-09-27T10:40:53.949Z,100.00
2022-09-27T10:43:35.051Z,100.00
2022-09-27T10:46:25.487Z,100.00
2022-09-27T10:49:26.644Z,100.00
2022-09-27T10:51:56.905Z,100.00
2022-09-27T10:54:33.204Z,100.00
2022-09-27T10:57:17.382Z,100.00
2022-09-27T10:59:46.806Z,100.00
2022-09-27T11:02:29.213Z,100.00
2022-09-27T11:05:04.745Z,100.00
2022-09-27T11:07:36.419Z,99.62
2022-09-27T11:10:28.771Z,100.00
2022-09-27T11:13:15.668Z,100.00
2022-09-27T11:16:18.144Z,99.62
2022-09-27T11:19:06.798Z,99.74
2022-09-27T11:22:01.171Z,95.69
2022-09-27T11:25:05.066Z,97.14
2022-09-27T11:27:39.757Z,96.68
2022-09-27T11:30:19.963Z,97.35
2022-09-27T11:33:45.488Z,93.71
2022-09-27T11:36:34.632Z,95.09
2022-09-27T11:39:15.028Z,90.88
2022-09-27T11:42:11.194Z,91.40
2022-09-27T11:45:07.807Z,92.91
2022-09-27T11:48:09.037Z,90.16
2022-09-27T11:50:47.117Z,88.92
2022-09-27T11:53:34.879Z,91.39
2022-09-27T11:56:24.869Z,90.98
2022-09-27T11:59:24.740Z,89.57
2022-09-27T12:02:27.561Z,91.33
2022-09-27T12:05:23.763Z,88.78
2022-09-27T12:08:34.378Z,89.40
2022-09-27T12:11:14.954Z,88.53
2022-09-27T12:13:59.009Z,89.26
2022-09-27T12:16:27.766Z,86.18
2022-09-27T12:18:55.234Z,84.36
2022-09-27T12:21:48.411Z,79.23
2022-09-27T12:24:21.502Z,80.80
2022-09-27T12:27:49.346Z,81.72
2022-09-27T12:30:19.654Z,79.67
2022-09-27T12:33:36.095Z,78.29
2022-09-27T12:36:09.080Z,71.14
2022-09-27T12:38:52.143Z,72.95
2022-09-27T12:41:22.422Z,71.96
2022-09-27T12:44:11.778Z,74.30
2022-09-27T12:47:07.168Z,75.13
2022-09-27T12:50:01.503Z,70.10
2022-09-27T12:52:34.996Z,70.64
2022-09-27T12:55:04.752Z,65.82
2022-09-27T12:57:55.604Z,68.34
2022-09-27T13:00:30.448Z,69.51
2022-09-27T13:03:43.311Z,70.69
2022-09-27T13:06:36.525Z,69.81
2022-09-27T13:09:10.771Z,66.29
2022-09-27T13:11:58.469Z,68.00
2022-09-27T13:14:27.875Z,70.44
2022-09-27T13:16:54.499Z,71.39
2022-09-27T13:19:43.372Z,74.26
2022-09-27T13:22:27.727Z,78.01
2022-09-27T13:25:01.804Z,77.32
2022-09-27T13:27:45.468Z,78.99
2022-09-27T13:30:19.823Z,78.96
2022-09-27T13:33:08.864Z,78.46
2022-09-27T13:36:16.469Z,78.93
2022-09-27T13:39:07.141Z,78.21
2022-09-27T13:41:46.730Z,79.35
2022-09-27T13:44:43.146Z,81.55
2022-09-27T13:47:27.270Z,83.32
2022-09-27T13:50:26.813Z,81.76
2022-09-27T13:53:28.859Z,81.19
2022-09-27T13:55:56.119Z,79.13
2022-09-27T13:58:42.330Z,81.81
2022-09-27T14:01:32.945Z,80.49
2022-09-27T14:04:30.797Z,80.59
2022-09-27T14:07:00.213Z,78.29
2022-09-27T14:09:32.371Z,79.27
2022-09-27T14:12:21.526Z,78.08
2022-09-27T14:14:51.254Z,76.24
2022-09-27T14:17:18.563Z,78.14
2022-09-27T14:19:45.535Z,79.09
2022-09-27T14:22:19.598Z,79.97
2022-09-27T14:25:04.000Z,79.94
2022-09-27T14:27:38.660Z,81.31
2022-09-27T14:30:24.561Z,83.38
2022-09-27T14:33:01.856Z,85.57
2022-09-27T14:36:07.911Z,86.66
2022-09-27T14:38:38.543Z,83.78
2022-09-27T14:41:15.844Z,85.21
2022-09-27T14:43:50.363Z,85.14
2022-09-27T14:46:31.475Z,86.66
2022-09-27T14:48:59.200Z,87.95
2022-09-27T14:51:30.841Z,89.27
2022-09-27T14:54:01.176Z,90.41
2022-09-27T14:56:32.244Z,91.48
2022-09-27T14:59:06.302Z,92.83
2022-09-27T15:01:34.995Z,93.40
2022-09-27T15:04:13.792Z,95.04
2022-09-27T15:06:40.543Z,94.76
2022-09-27T15:09:10.047Z,95.41
2022-09-27T15:11:37.124Z,95.12
2022-09-27T15:14:05.118Z,95.40
2022-09-27T15:16:31.833Z,96.88
2022-09-27T15:19:03.488Z,98.56
2022-09-27T15:21:33.503Z,99.47
2022-09-27T15:23:59.931Z,97.49
2022-09-27T15:26:39.211Z,96.26
2022-09-27T15:29:06.056Z,95.25
2022-09-27T15:31:36.441Z,97.12
2022-09-27T15:34:07.224Z,94.02
2022-09-27T15:36:51.908Z,94.70
2022-09-27T15:39:29.119Z,94.99
2022-09-27T15:42:10.450Z,94.73
2022-09-27T15:44:43.283Z,93.93
2022-09-27T15:47:32.005Z,95.80
2022-09-27T15:49:59.704Z,95.94
2022-09-27T15:52:51.202Z,92.53
2022-09-27T15:55:20.022Z,90.14
2022-09-27T15:57:50.446Z,88.20
2022-09-27T16:00:18.769Z,89.07
2022-09-27T16:02:45.665Z,89.80
2022-09-27T16:05:13.340Z,88.87
2022-09-27T16:07:39.959Z,89.38
2022-09-27T16:10:18.723Z,88.51
2022-09-27T16:12:45.599Z,89.15
2022-09-27T16:15:14.115Z,88.56
2022-09-27T16:17:43.487Z,87.71
2022-09-27T16:20:25.103Z,89.23
2022-09-27T16:22:52.034Z,89.13
2022-09-27T16:25:19.491Z,89.33
2022-09-27T16:27:46.274Z,86.70
2022-09-27T16:30:13.581Z,87.88
2022-09-27T16:32:41.844Z,88.42
2022-09-27T16:35:09.672Z,89.63
2022-09-27T16:37:36.098Z,90.41
2022-09-27T16:40:04.493Z,90.67
2022-09-27T16:42:30.969Z,89.56
2022-09-27T16:44:57.535Z,90.16
2022-09-27T16:47:23.967Z,89.68
2022-09-27T16:50:09.141Z,89.20
2022-09-27T16:52:35.697Z,89.48
2022-09-27T16:55:02.112Z,89.80
2022-09-27T16:57:28.639Z,88.70
2022-09-27T16:59:58.568Z,89.78
2022-09-27T17:02:25.145Z,90.11
2022-09-27T17:04:53.286Z,89.39
2022-09-27T17:07:20.940Z,88.52
2022-09-27T17:09:47.494Z,89.39
2022-09-27T17:12:14.719Z,89.14
2022-09-27T17:14:41.612Z,89.43
2022-09-27T17:17:08.524Z,88.42
2022-09-27T17:19:34.967Z,88.55
2022-09-27T17:22:02.498Z,86.79
2022-09-27T17:24:28.837Z,86.23
2022-09-27T17:26:55.490Z,86.43
2022-09-27T17:29:21.910Z,86.02
2022-09-27T17:31:48.404Z,86.61
2022-09-27T17:34:15.886Z,86.31
2022-09-27T17:36:48.112Z,86.62
2022-09-27T17:39:16.591Z,87.14
2022-09-27T17:41:43.718Z,86.29
2022-09-27T17:44:13.734Z,85.92
2022-09-27T17:46:41.081Z,86.45
2022-09-27T17:49:27.922Z,85.96
2022-09-27T17:51:54.328Z,85.59
2022-09-27T17:54:23.324Z,86.44
2022-09-27T17:56:50.481Z,86.42
2022-09-27T17:59:18.026Z,86.08
2022-09-27T18:01:47.756Z,85.08
2022-09-27T18:04:17.274Z,84.63
2022-09-27T18:06:46.118Z,85.07
2022-09-27T18:09:14.514Z,86.06
2022-09-27T18:11:41.231Z,85.65
2022-09-27T18:14:08.448Z,86.49
2022-09-27T18:16:39.402Z,85.58
2022-09-27T18:19:08.078Z,86.10
2022-09-27T18:21:35.292Z,85.38
2022-09-27T18:24:06.229Z,85.71
2022-09-27T18:26:36.450Z,85.14
2022-09-27T18:29:06.514Z,85.50
2022-09-27T18:31:33.143Z,86.27
2022-09-27T18:33:59.716Z,86.06
2022-09-27T18:36:27.513Z,87.25
2022-09-27T18:38:59.056Z,87.58
2022-09-27T18:41:27.782Z,87.55
2022-09-27T18:43:59.679Z,88.51
2022-09-27T18:46:36.918Z,88.18
2022-09-27T18:49:05.588Z,88.85
2022-09-27T18:51:33.190Z,88.15
2022-09-27T18:54:03.048Z,88.29
2022-09-27T18:56:30.425Z,87.91
2022-09-27T18:58:57.777Z,89.00
2022-09-27T19:01:25.653Z,88.99
2022-09-27T19:03:53.090Z,88.29
2022-09-27T19:06:22.297Z,88.69
2022-09-27T19:08:58.478Z,88.05
2022-09-27T19:11:26.339Z,88.41
2022-09-27T19:13:55.259Z,88.44
2022-09-27T19:16:23.170Z,89.33
2022-09-27T19:18:49.804Z,88.94
2022-09-27T19:21:19.222Z,88.61
2022-09-27T19:23:46.070Z,88.64
2022-09-27T19:26:15.297Z,87.52
2022-09-27T19:28:43.976Z,87.71
2022-09-27T19:31:13.407Z,88.64
2022-09-27T19:33:40.519Z,87.86
2022-09-27T19:36:09.941Z,87.29
2022-09-27T19:38:37.880Z,88.11
2022-09-27T19:41:07.025Z,87.98
2022-09-27T19:43:33.454Z,87.32
2022-09-27T19:46:29.101Z,87.95
2022-09-27T19:48:56.076Z,87.42
2022-09-27T19:51:28.075Z,87.67
2022-09-27T19:53:54.887Z,87.27
2022-09-27T19:56:22.276Z,86.82
2022-09-27T19:58:49.504Z,87.41
2022-09-27T20:01:20.167Z,87.68
2022-09-27T20:03:47.682Z,88.92
2022-09-27T20:06:16.592Z,88.05
2022-09-27T20:08:43.818Z,87.34
2022-09-27T20:11:16.017Z,86.88
2022-09-27T20:13:43.551Z,86.16
2022-09-27T20:16:15.945Z,86.50
2022-09-27T20:18:44.027Z,85.94
2022-09-27T20:21:10.662Z,86.95
2022-09-27T20:23:37.805Z,86.60
2022-09-27T20:26:08.113Z,87.14
2022-09-27T20:28:35.549Z,86.38
2022-09-27T20:31:04.177Z,86.38
2022-09-27T20:33:44.637Z,86.55
2022-09-27T20:36:16.595Z,87.25
2022-09-27T20:38:45.285Z,86.50
2022-09-27T20:41:14.385Z,86.59
2022-09-27T20:43:40.820Z,87.55
2022-09-27T20:46:11.013Z,87.29
2022-09-27T20:48:38.344Z,86.90
2022-09-27T20:51:05.202Z,85.71
2022-09-27T20:53:32.790Z,86.87
2022-09-27T20:56:02.609Z,87.73
2022-09-27T20:58:30.477Z,89.14
2022-09-27T21:00:57.695Z,88.70
2022-09-27T21:03:24.209Z,87.51
2022-09-27T21:05:57.047Z,87.55
2022-09-27T21:08:24.340Z,86.66
2022-09-27T21:10:52.988Z,86.69
2022-09-27T21:13:19.924Z,87.11
2022-09-27T21:15:46.418Z,87.86
2022-09-27T21:18:12.960Z,87.68
2022-09-27T21:20:39.354Z,87.77
2022-09-27T21:23:05.972Z,87.54
2022-09-27T21:25:32.349Z,88.33
2022-09-27T21:27:58.688Z,88.33
2022-09-27T21:30:25.380Z,87.27
2022-09-27T21:32:55.768Z,87.38
2022-09-27T21:35:22.664Z,87.22
2022-09-27T21:37:49.546Z,86.99
2022-09-27T21:40:16.793Z,87.72
2022-09-27T21:42:43.308Z,87.77
2022-09-27T21:45:10.335Z,87.94
2022-09-27T21:47:36.677Z,88.41
2022-09-27T21:50:03.294Z,88.03
2022-09-27T21:52:29.781Z,87.80
2022-09-27T21:54:56.132Z,87.90
2022-09-27T21:57:22.532Z,86.40
2022-09-27T21:59:49.130Z,87.46
2022-09-27T22:02:18.524Z,88.32
2022-09-27T22:04:45.104Z,87.74
2022-09-27T22:07:11.729Z,87.12
2022-09-27T22:09:38.163Z,86.90
2022-09-27T22:12:04.744Z,86.77
2022-09-27T22:14:34.289Z,87.93
2022-09-27T22:17:00.674Z,87.67
2022-09-27T22:19:27.575Z,88.29
2022-09-27T22:21:53.890Z,87.31
2022-09-27T22:24:20.365Z,87.29
2022-09-27T22:26:49.925Z,87.13
2022-09-27T22:29:16.847Z,86.91
2022-09-27T22:31:43.608Z,87.03
2022-09-27T22:34:18.833Z,86.53
2022-09-27T22:36:45.588Z,86.25
2022-09-27T22:39:12.305Z,86.09
2022-09-27T22:41:39.000Z,86.17
2022-09-27T22:44:05.515Z,86.48
2022-09-27T22:46:31.992Z,84.64
2022-09-27T22:48:58.550Z,86.29
2022-09-27T22:51:25.039Z,85.27
2022-09-27T22:53:51.393Z,86.15
2022-09-27T22:56:19.841Z,85.53
2022-09-27T22:58:47.537Z,84.43
2022-09-27T23:01:18.027Z,84.28
2022-09-27T23:03:45.800Z,84.14
2022-09-27T23:06:13.473Z,84.21
2022-09-27T23:08:39.869Z,83.50
2022-09-27T23:11:11.562Z,84.38
2022-09-27T23:13:39.956Z,83.87
2022-09-27T23:16:11.632Z,84.07
2022-09-27T23:18:38.438Z,83.96
2022-09-27T23:21:08.211Z,84.97
2022-09-27T23:23:36.830Z,84.63
2022-09-27T23:26:05.897Z,86.08
2022-09-27T23:28:33.210Z,85.51
2022-09-27T23:31:09.892Z,85.10
2022-09-27T23:33:38.615Z,85.77
2022-09-27T23:36:07.856Z,84.81
2022-09-27T23:38:35.158Z,83.91
2022-09-27T23:41:01.822Z,84.31
2022-09-27T23:43:28.333Z,84.27
2022-09-27T23:45:57.265Z,84.38
2022-09-27T23:48:26.872Z,85.30
2022-09-27T23:50:53.721Z,84.87
2022-09-27T23:53:20.980Z,84.75
2022-09-27T23:55:48.501Z,83.59
2022-09-27T23:58:15.784Z,83.99
